Nu Mine, PA (16244)

5:45 PM EST on March 04, 2015 (GMT -0500)
Rural Valley | Change Station
CLOSE
Current Station
Personal Weather Station
Location: Rural Valley, PA
Elevation: 1133 ft
Nearby Weather Stations

Elev 1133 ft 40.76 °N, 79.32 °W | Updated 27 seconds ago

Rain
Rain
33.6 °F
Feels Like 34 °F
N
0.7
Wind Variable Wind from SE
Gusts 1.6 mph

Today
High -- | Low -- °F
--% Chance of Precip.
Yesterday
High -- | Low -- °F
Precip. -- in
6:46 AM 6:11 PM
Waxing Gibbous, 99% visible
Pressure 29.93 in
Visibility 0.5 miles
Clouds Overcast 300 ft
Windchill 34 °F
Dew Point 33 °F
Humidity 99%
Rainfall 0.60 in
Snow Depth Not available.
UV 0 out of 12
Pollen .60 out of 12
Air Quality Not available.
Flu Activity Not available.
METAR KIDI 042235Z AUTO 25003KT 1/2SM FG OVC003 00/00 A2993 RMK A01

More Conditions Fewer Conditions

Pressure 29.93 in
Visibility 0.5 miles
Clouds Overcast 300 ft
Windchill 34 °F
Dew Point 33 °F
Humidity 99%
Rainfall 0.60 in
Snow Depth Not available.
UV 0 out of 12
Pollen .60 out of 12
Air Quality Not available.
Flu Activity Not available.
METAR KIDI 042235Z AUTO 25003KT 1/2SM FG OVC003 00/00 A2993 RMK A01

More Conditions Fewer Conditions

10-Day Weather Forecast

Almanac

Astronomy

Mar. 04, 2015 Rise Set
Actual Time
Civil Twilight
Nautical Twilight
Astronomical Twilight
Moon
Length of Visible Light
Length of Day
Tomorrow will be .
, % of the Moon is Illuminated

Today's Extremes

State Highs State Lows

Community

WunderPhotos

Upload Photos

1,802,595 photos uploaded!

WunderBlogs® & News

Nearby

Air Quality

  Air Quality AQ Index Pollutant
Not available.

Snow Depth

Station Depth Elevation

Earthquake Activity

City Distance Mag. Time & Date
Minimum magnitude displayed is 2.5.

Coastal Water Temperatures

Place Temperature

Nearby Weather Stations